createdAt,value
2023-05-09T00:00:07.192Z,1019.16
2023-05-09T00:15:02.273Z,1019.00
2023-05-09T00:20:16.488Z,1018.90
2023-05-09T00:50:00.956Z,1018.69
2023-05-09T01:00:03.073Z,1018.54
2023-05-09T01:15:01.452Z,1018.49
2023-05-09T01:20:00.631Z,1018.42
2023-05-09T01:25:00.746Z,1018.42
2023-05-09T01:30:01.066Z,1018.38
2023-05-09T01:35:01.638Z,1018.38
2023-05-09T01:45:00.915Z,1018.28
2023-05-09T01:55:01.664Z,1018.17
2023-05-09T02:00:00.757Z,1018.06
2023-05-09T02:10:00.804Z,1018.06
2023-05-09T02:15:00.931Z,1018.06
2023-05-09T02:20:01.054Z,1017.95
2023-05-09T02:30:00.487Z,1017.87
2023-05-09T02:45:00.869Z,1017.81
2023-05-09T03:00:00.672Z,1017.53
2023-05-09T03:05:01.758Z,1017.53
2023-05-09T03:15:00.611Z,1017.50
2023-05-09T03:20:04.456Z,1017.33
2023-05-09T03:30:01.327Z,1017.25
2023-05-09T03:40:01.600Z,1017.10
2023-05-09T03:45:00.571Z,1017.10
2023-05-09T03:50:00.753Z,1017.18
2023-05-09T04:00:03.937Z,1017.06
2023-05-09T04:15:00.620Z,1017.07
2023-05-09T04:20:00.573Z,1016.99
2023-05-09T04:30:05.577Z,1016.98
2023-05-09T04:35:00.456Z,1016.98
2023-05-09T04:40:00.496Z,1017.00
2023-05-09T04:45:00.465Z,1017.00
2023-05-09T04:50:00.566Z,1016.96
2023-05-09T04:55:00.440Z,1016.96
2023-05-09T05:00:00.583Z,1016.93
2023-05-09T05:10:00.512Z,1016.93
2023-05-09T05:15:00.448Z,1016.93
2023-05-09T05:20:00.514Z,1016.77
2023-05-09T05:30:00.635Z,1016.61
2023-05-09T05:40:00.578Z,1016.57
2023-05-09T05:45:00.382Z,1016.57
2023-05-09T05:50:00.520Z,1016.46
2023-05-09T06:00:00.692Z,1016.30
2023-05-09T06:05:00.594Z,1016.30
2023-05-09T06:10:00.734Z,1016.22
2023-05-09T06:15:00.741Z,1016.22
2023-05-09T06:20:15.549Z,1016.07
2023-05-09T06:50:02.696Z,1015.66
2023-05-09T07:00:04.114Z,1015.46
2023-05-09T07:10:12.549Z,1015.45
2023-05-09T07:15:01.532Z,1015.45
2023-05-09T07:20:02.863Z,1015.24
2023-05-09T07:25:01.489Z,1015.24
2023-05-09T07:30:02.048Z,1015.08
2023-05-09T07:35:02.234Z,1015.08
2023-05-09T07:40:01.621Z,1015.12
2023-05-09T07:45:01.460Z,1015.12
2023-05-09T07:50:02.105Z,1015.00
2023-05-09T07:55:01.539Z,1015.00
2023-05-09T08:00:16.242Z,1014.79
2023-05-09T08:30:01.719Z,1014.26
2023-05-09T08:40:02.085Z,1014.25
2023-05-09T08:45:02.334Z,1014.25
2023-05-09T08:50:02.110Z,1014.15
2023-05-09T08:55:02.083Z,1014.15
2023-05-09T09:00:03.390Z,1014.15
2023-05-09T09:05:12.837Z,1014.15
2023-05-09T09:10:01.267Z,1013.99
2023-05-09T09:15:01.381Z,1013.99
2023-05-09T09:20:17.075Z,1013.85
2023-05-09T09:50:01.868Z,1013.59
2023-05-09T10:00:02.870Z,1013.42
2023-05-09T10:05:01.260Z,1013.42
2023-05-09T10:10:01.406Z,1013.31
2023-05-09T10:15:01.291Z,1013.31
2023-05-09T10:20:01.198Z,1013.18
2023-05-09T10:25:01.289Z,1013.18
2023-05-09T10:30:01.484Z,1013.18
2023-05-09T10:35:01.414Z,1013.18
2023-05-09T10:40:02.134Z,1013.07
2023-05-09T10:45:01.519Z,1013.07
2023-05-09T10:50:01.364Z,1012.88
2023-05-09T11:00:04.515Z,1012.62
2023-05-09T11:05:02.093Z,1012.62
2023-05-09T11:10:01.393Z,1012.42
2023-05-09T11:15:01.878Z,1012.42
2023-05-09T11:20:01.071Z,1012.32
2023-05-09T11:25:13.884Z,1012.32
2023-05-09T11:30:02.046Z,1012.01
2023-05-09T11:40:01.177Z,1011.98
2023-05-09T11:45:02.551Z,1011.98
2023-05-09T11:50:01.262Z,1011.88
2023-05-09T11:55:02.176Z,1011.88
2023-05-09T12:00:16.368Z,1011.72
2023-05-09T12:30:01.887Z,1011.43
2023-05-09T12:45:01.730Z,1011.34
2023-05-09T12:55:01.719Z,1011.39
2023-05-09T13:00:05.166Z,1011.34
2023-05-09T13:10:01.608Z,1011.27
2023-05-09T13:15:01.997Z,1011.27
2023-05-09T13:20:02.316Z,1011.20
2023-05-09T13:30:02.324Z,1011.12
2023-05-09T13:35:02.760Z,1011.12
2023-05-09T13:40:01.525Z,1011.12
2023-05-09T13:45:01.560Z,1011.12
2023-05-09T13:50:01.496Z,1010.95
2023-05-09T13:55:01.801Z,1010.95
2023-05-09T14:00:03.542Z,1010.81
2023-05-09T14:05:01.510Z,1010.81
2023-05-09T14:15:01.805Z,1010.72
2023-05-09T14:20:01.425Z,1010.52
2023-05-09T14:25:01.631Z,1010.52
2023-05-09T14:30:02.008Z,1010.47
2023-05-09T14:35:16.731Z,1010.47
2023-05-09T15:00:21.000Z,1010.03
2023-05-09T15:10:00.907Z,1009.75
2023-05-09T15:15:01.307Z,1009.75
2023-05-09T15:20:00.983Z,1009.71
2023-05-09T15:25:02.075Z,1009.71
2023-05-09T15:30:01.196Z,1009.60
2023-05-09T15:35:00.959Z,1009.60
2023-05-09T15:45:02.093Z,1009.53
2023-05-09T15:55:01.713Z,1009.42
2023-05-09T16:00:04.692Z,1009.39
2023-05-09T16:05:01.054Z,1009.39
2023-05-09T16:10:02.478Z,1009.24
2023-05-09T16:15:00.904Z,1009.24
2023-05-09T16:20:01.052Z,1009.20
2023-05-09T16:25:01.151Z,1009.20
2023-05-09T16:30:01.659Z,1009.13
2023-05-09T16:35:00.978Z,1009.13
2023-05-09T16:45:01.930Z,1009.04
2023-05-09T17:00:02.657Z,1008.91
2023-05-09T17:05:03.285Z,1008.91
2023-05-09T17:10:00.773Z,1008.76
2023-05-09T17:15:00.833Z,1008.76
2023-05-09T17:20:01.750Z,1008.73
2023-05-09T17:25:01.999Z,1008.73
2023-05-09T17:30:01.874Z,1008.64
2023-05-09T17:35:00.902Z,1008.64
2023-05-09T17:40:00.842Z,1008.56
2023-05-09T17:45:01.101Z,1008.56
2023-05-09T17:50:01.204Z,1008.61
2023-05-09T17:55:01.108Z,1008.61
2023-05-09T18:00:05.623Z,1008.59
2023-05-09T18:05:01.087Z,1008.59
2023-05-09T18:10:01.160Z,1008.62
2023-05-09T18:15:00.918Z,1008.62
2023-05-09T18:20:01.938Z,1008.65
2023-05-09T18:25:00.891Z,1008.65
2023-05-09T18:30:01.868Z,1008.53
2023-05-09T18:35:15.918Z,1008.53
2023-05-09T19:00:04.765Z,1008.60
2023-05-09T19:10:01.922Z,1008.56
2023-05-09T19:15:00.960Z,1008.56
2023-05-09T19:20:01.134Z,1008.50
2023-05-09T19:25:01.287Z,1008.50
2023-05-09T19:30:00.897Z,1008.51
2023-05-09T19:35:01.404Z,1008.51
2023-05-09T19:40:00.911Z,1008.48
2023-05-09T19:45:01.054Z,1008.48
2023-05-09T19:50:01.167Z,1008.51
2023-05-09T19:55:01.038Z,1008.51
2023-05-09T20:00:01.377Z,1008.45
2023-05-09T20:05:02.110Z,1008.45
2023-05-09T20:15:01.151Z,1008.40
2023-05-09T20:20:00.922Z,1008.39
2023-05-09T20:25:00.900Z,1008.39
2023-05-09T20:30:01.279Z,1008.29
2023-05-09T20:35:00.910Z,1008.29
2023-05-09T20:40:00.929Z,1008.25
2023-05-09T20:45:01.031Z,1008.25
2023-05-09T20:50:01.812Z,1008.23
2023-05-09T20:55:01.041Z,1008.23
2023-05-09T21:00:03.215Z,1008.16
2023-05-09T21:05:00.987Z,1008.16
2023-05-09T21:10:00.853Z,1008.20
2023-05-09T21:15:01.172Z,1008.20
2023-05-09T21:20:01.392Z,1008.13
2023-05-09T21:30:00.991Z,1008.08
2023-05-09T21:35:00.975Z,1008.08
2023-05-09T21:45:01.852Z,1008.01
2023-05-09T22:00:01.581Z,1007.83
2023-05-09T22:05:01.991Z,1007.83
2023-05-09T22:10:00.987Z,1007.70
2023-05-09T22:15:00.985Z,1007.70
2023-05-09T22:20:07.745Z,1007.64
2023-05-09T22:25:02.017Z,1007.64
2023-05-09T22:30:01.896Z,1007.63
2023-05-09T22:35:01.055Z,1007.63
2023-05-09T22:40:01.059Z,1007.54
2023-05-09T22:45:01.077Z,1007.54
2023-05-09T22:55:02.029Z,1007.48
2023-05-09T23:00:03.118Z,1007.55
2023-05-09T23:15:15.838Z,1007.58
2023-05-09T23:25:15.676Z,1007.55
2023-05-09T23:30:00.837Z,1007.51
2023-05-09T23:45:15.839Z,1007.43
